EW7174 Weather Reports


Display with metric or nautical units.
time (UTC)temp
F
wind
direction
speed
MPH
gust
MPH
rain 1hr
in
rain 24hr
in
rain mn
in
humidity
%
barometer
mb
20180920234504 83 112 2.0 3.0 0.00 0.00 0.00 64 1019.4
20180920234006 83 112 2.0 2.0 0.00 0.00 0.00 63 1019.4
20180920233504 84 112 2.0 3.0 0.00 0.00 0.00 63 1019.3
20180920233007 84 135 2.0 3.0 0.00 0.00 0.00 62 1019.4
20180920232504 84 135 2.0 2.0 0.00 0.00 0.00 62 1019.3
20180920232005 85 154 2.0 3.0 0.00 0.00 0.00 61 1019.3
20180920231504 85 135 1.0 2.0 0.00 0.00 0.00 59 1019.3
20180920231006 86 135 2.0 3.0 0.00 0.00 0.00 59 1019.3
20180920230504 86 136 2.0 2.0 0.00 0.00 0.00 58 1019.3
20180920230007 86 135 2.0 2.0 0.00 0.00 0.00 57 1019.2
20180920225504 87 128 2.0 3.0 0.00 0.00 0.00 57 1019.3
20180920225006 87 114 2.0 3.0 0.00 0.00 0.00 56 1019.2
20180920224504 88 131 2.0 3.0 0.00 0.00 0.00 54 1019.3
20180920224005 89 117 2.0 3.0 0.00 0.00 0.00 53 1019.3
20180920223504 90 126 2.0 4.0 0.00 0.00 0.00 51 1019.3
20180920223005 90 130 1.0 2.0 0.00 0.00 0.00 50 1019.3
20180920222504 91 157 1.0 2.0 0.00 0.00 0.00 48 1019.3
20180920222004 92 149 2.0 2.0 0.00 0.00 0.00 47 1019.3
20180920221505 92 157 2.0 3.0 0.00 0.00 0.00 46 1019.4
20180920221005 93 146 2.0 3.0 0.00 0.00 0.00 46 1019.5
20180920220505 93 157 2.0 3.0 0.00 0.00 0.00 46 1019.4
20180920220006 93 157 1.0 2.0 0.00 0.00 0.00 46 1019.5
20180920215504 93 157 0.0 2.0 0.00 0.00 0.00 45 1019.5
20180920215005 93 180 1.0 2.0 0.00 0.00 0.00 45 1019.5
20180920214504 93 165 1.0 3.0 0.00 0.00 0.00 45 1019.6
20180920214006 93 150 1.0 3.0 0.00 0.00 0.00 46 1019.5
20180920213504 93 157 2.0 3.0 0.00 0.00 0.00 46 1019.5
20180920213006 93 157 2.0 4.0 0.00 0.00 0.00 45 1019.6
20180920212504 93 136 2.0 4.0 0.00 0.00 0.00 45 1019.6
20180920212006 93 155 3.0 4.0 0.00 0.00 0.00 46 1019.7
20180920211505 93 157 0.0 2.0 0.00 0.00 0.00 47 1019.7
20180920210504 93 212 1.0 4.0 0.00 0.00 0.00 47 1019.7
20180920210005 93 157 2.0 3.0 0.00 0.00 0.00 46 1019.7
20180920205505 93 157 2.0 4.0 0.00 0.00 0.00 46 1019.8
20180920205005 92 143 2.0 5.0 0.00 0.00 0.00 47 1019.7
20180920204504 92 162 2.0 4.0 0.00 0.00 0.00 46 1019.7
20180920204005 93 159 5.0 7.0 0.00 0.00 0.00 46 1019.8
20180920203505 93 176 4.0 6.0 0.00 0.00 0.00 45 1019.9
20180920203005 93 132 2.0 3.0 0.00 0.00 0.00 46 1019.9
20180920202504 93 157 2.0 4.0 0.00 0.00 0.00 47 1019.9
20180920202004 93 207 1.0 3.0 0.00 0.00 0.00 46 1019.9
20180920201504 93 154 2.0 3.0 0.00 0.00 0.00 46 1019.9
20180920201006 93 87 2.0 4.0 0.00 0.00 0.00 47 1019.9
20180920200504 93 167 0.0 1.0 0.00 0.00 0.00 47 1019.9
20180920200006 93 157 3.0 5.0 0.00 0.00 0.00 47 1020.0
20180920195504 93 152 3.0 5.0 0.00 0.00 0.00 47 1020.0
20180920195006 93 184 3.0 5.0 0.00 0.00 0.00 47 1020.0
20180920194504 93 172 1.0 3.0 0.00 0.00 0.00 48 1020.0
20180920194005 93 169 2.0 5.0 0.00 0.00 0.00 46 1020.0
20180920193503 93 157 2.0 3.0 0.00 0.00 0.00 47 1020.1
20180920193005 92 145 2.0 3.0 0.00 0.00 0.00 48 1020.3
20180920192504 92 186 2.0 4.0 0.00 0.00 0.00 48 1020.3
20180920192004 92 225 1.0 4.0 0.00 0.00 0.00 49 1020.3
20180920191504 91 238 2.0 4.0 0.00 0.00 0.00 49 1020.4
20180920191005 91 157 2.0 3.0 0.00 0.00 0.00 49 1020.4
20180920190504 92 154 4.0 6.0 0.00 0.00 0.00 50 1020.5
20180920190006 92 174 2.0 4.0 0.00 0.00 0.00 50 1020.6
20180920185504 91 112 2.0 4.0 0.00 0.00 0.00 51 1020.6
20180920185006 91 157 3.0 5.0 0.00 0.00 0.00 52 1020.8
20180920184504 90 147 3.0 5.0 0.00 0.00 0.00 52 1020.8
20180920184006 90 157 2.0 5.0 0.00 0.00 0.00 50 1020.9
20180920183006 91 200 0.0 1.0 0.00 0.00 0.00 51 1021.0
20180920182505 91 179 1.0 3.0 0.00 0.00 0.00 50 1021.1
20180920182007 91 114 3.0 5.0 0.00 0.00 0.00 51 1021.0
20180920181505 90 245 1.0 2.0 0.00 0.00 0.00 52 1021.2
20180920181005 90 259 1.0 3.0 0.00 0.00 0.00 51 1021.2
20180920180504 91 190 2.0 4.0 0.00 0.00 0.00 51 1021.2
20180920180006 90 174 1.0 4.0 0.00 0.00 0.00 52 1021.3
20180920175504 90 132 4.0 8.0 0.00 0.00 0.00 52 1021.3
20180920175004 90 137 3.0 5.0 0.00 0.00 0.00 54 1021.3
20180920174504 90 149 3.0 5.0 0.00 0.00 0.00 54 1021.3
20180920174005 90 228 2.0 5.0 0.00 0.00 0.00 55 1021.5
20180920173504 90 161 2.0 4.0 0.00 0.00 0.00 54 1021.5
20180920173006 90 163 1.0 3.0 0.00 0.00 0.00 55 1021.7
20180920172504 89 157 3.0 5.0 0.00 0.00 0.00 55 1021.7
20180920172005 89 157 1.0 4.0 0.00 0.00 0.00 57 1021.7
20180920171504 89 230 2.0 5.0 0.00 0.00 0.00 55 1021.7
20180920171006 89 237 3.0 4.0 0.00 0.00 0.00 56 1021.8
20180920170504 89 195 2.0 5.0 0.00 0.00 0.00 54 1021.8
20180920170009 89 228 2.0 4.0 0.00 0.00 0.00 55 1021.9
20180920165504 89 206 1.0 3.0 0.00 0.00 0.00 56 1021.9
20180920165006 89 180 1.0 4.0 0.00 0.00 0.00 55 1022.0
20180920164505 89 161 2.0 5.0 0.00 0.00 0.00 56 1022.1
20180920164007 89 163 3.0 5.0 0.00 0.00 0.00 56 1022.2
20180920163504 89 182 2.0 4.0 0.00 0.00 0.00 57 1022.1
20180920163006 89 193 2.0 5.0 0.00 0.00 0.00 57 1022.2
20180920162504 89 162 2.0 3.0 0.00 0.00 0.00 59 1022.2
20180920162005 88 230 1.0 3.0 0.00 0.00 0.00 60 1022.2
20180920161505 88 157 2.0 3.0 0.00 0.00 0.00 58 1022.3
20180920161005 88 209 2.0 4.0 0.00 0.00 0.00 59 1022.3
20180920160505 88 216 2.0 3.0 0.00 0.00 0.00 59 1022.4
20180920160005 88 189 1.0 3.0 0.00 0.00 0.00 61 1022.4
20180920155504 88 175 2.0 5.0 0.00 0.00 0.00 62 1022.5
20180920155005 88 167 1.0 4.0 0.00 0.00 0.00 62 1022.5
20180920154504 88 253 1.0 3.0 0.00 0.00 0.00 62 1022.5
20180920154005 88 159 2.0 4.0 0.00 0.00 0.00 62 1022.4
20180920153504 87 285 2.0 4.0 0.00 0.00 0.00 64 1022.5
20180920153005 87 225 1.0 3.0 0.00 0.00 0.00 63 1022.5
20180920152505 86 183 1.0 3.0 0.00 0.00 0.00 65 1022.5
20180920152005 86 213 1.0 3.0 0.00 0.00 0.00 65 1022.5
20180920151505 86 214 1.0 3.0 0.00 0.00 0.00 65 1022.4
20180920151005 86 235 2.0 3.0 0.00 0.00 0.00 66 1022.5
20180920150505 86 192 2.0 3.0 0.00 0.00 0.00 66 1022.4
20180920150006 85 176 2.0 4.0 0.00 0.00 0.00 67 1022.5
20180920145504 85 197 1.0 4.0 0.00 0.00 0.00 66 1022.4
20180920145004 85 160 2.0 4.0 0.00 0.00 0.00 67 1022.5
20180920144504 85 157 2.0 5.0 0.00 0.00 0.00 68 1022.4
20180920144005 84 154 3.0 5.0 0.00 0.00 0.00 68 1022.5
20180920143503 84 197 2.0 4.0 0.00 0.00 0.00 69 1022.4
20180920143005 84 205 2.0 4.0 0.00 0.00 0.00 71 1022.3
20180920142504 83 157 1.0 3.0 0.00 0.00 0.00 72 1022.3
20180920142005 83 157 1.0 2.0 0.00 0.00 0.00 75 1022.3
20180920141505 82 165 0.0 2.0 0.00 0.00 0.00 76 1022.3
20180920141004 81 157 1.0 3.0 0.00 0.00 0.00 78 1022.3
20180920140504 80 157 1.0 3.0 0.00 0.00 0.00 80 1022.2
20180920140005 80 153 2.0 4.0 0.00 0.00 0.00 81 1022.2
20180920135504 79 140 3.0 5.0 0.00 0.00 0.00 83 1022.1
20180920135004 78 174 2.0 4.0 0.00 0.00 0.00 85 1022.1
20180920134504 78 157 3.0 4.0 0.00 0.00 0.00 87 1021.9
20180920134006 77 159 2.0 4.0 0.00 0.00 0.00 88 1021.9
20180920133504 76 157 3.0 4.0 0.00 0.00 0.00 91 1021.9
20180920133005 76 166 2.0 4.0 0.00 0.00 0.00 93 1021.7
20180920132505 75 157 1.0 3.0 0.00 0.00 0.00 94 1021.7
20180920132005 74 140 2.0 4.0 0.00 0.00 0.00 96 1021.7
20180920131505 74 157 2.0 3.0 0.00 0.00 0.00 96 1021.7
20180920131006 73 136 2.0 4.0 0.00 0.00 0.00 96 1021.7
20180920130504 72 99 2.0 3.0 0.00 0.00 0.00 97 1021.7
20180920130006 72 157 1.0 3.0 0.00 0.00 0.00 98 1021.7
20180920125504 72 157 0.0 1.0 0.00 0.00 0.00 98 1021.6
20180920125004 71 157 0.0 1.0 0.00 0.00 0.00 99 1021.6
20180920124504 71 137 1.0 2.0 0.00 0.00 0.00 99 1021.6
20180920124004 70 135 1.0 2.0 0.00 0.00 0.00 98 1021.6
20180920123504 70 135 0.0 0.0 0.00 0.00 0.00 99 1021.6
20180920123006 69 135 0.0 0.0 0.00 0.00 0.00 98 1021.6
20180920122505 69 135 0.0 0.0 0.00 0.00 0.00 99 1021.6
20180920122005 68 135 0.0 0.0 0.00 0.00 0.00 98 1021.7
20180920121504 68 135 0.0 0.0 0.00 0.00 0.00 98 1021.6
20180920121005 68 135 0.0 0.0 0.00 0.00 0.00 98 1021.5
20180920120504 68 135 0.0 0.0 0.00 0.00 0.00 99 1021.5
20180920120005 68 135 0.0 0.0 0.00 0.00 0.00 99 1021.3
20180920115504 68 135 0.0 0.0 0.00 0.00 0.00 99 1021.3
20180920115004 68 135 0.0 0.0 0.00 0.00 0.00 99 1021.3
20180920114504 68 135 0.0 0.0 0.00 0.00 0.00 99 1021.2
20180920114005 68 135 0.0 0.0 0.00 0.00 0.00 98 1021.2
20180920113504 68 135 0.0 1.0 0.00 0.00 0.00 99 1021.1
20180920113005 68 112 0.0 1.0 0.00 0.00 0.00 98 1021.1
20180920112503 67 112 0.0 0.0 0.00 0.00 0.00 98 1021.1
20180920112004 67 112 0.0 0.0 0.00 0.00 0.00 98 1021.0
20180920111504 67 112 0.0 0.0 0.00 0.00 0.00 97 1021.1
20180920111004 67 112 0.0 0.0 0.00 0.00 0.00 98 1021.0
20180920110504 67 112 0.0 0.0 0.00 0.00 0.00 97 1020.9
20180920110004 67 112 0.0 0.0 0.00 0.00 0.00 98 1021.0
20180920105504 67 112 0.0 0.0 0.00 0.00 0.00 98 1020.9
20180920105005 67 112 0.0 0.0 0.00 0.00 0.00 98 1020.8
20180920104504 67 112 0.0 0.0 0.00 0.00 0.00 98 1020.9
20180920104005 67 112 0.0 0.0 0.00 0.00 0.00 97 1020.8
20180920103504 67 112 0.0 0.0 0.00 0.00 0.00 98 1020.8
20180920103004 67 112 0.0 0.0 0.00 0.00 0.00 98 1020.8
20180920102504 67 112 0.0 0.0 0.00 0.00 0.00 98 1020.6
20180920102004 67 112 0.0 0.0 0.00 0.00 0.00 98 1020.7
20180920101504 67 112 0.0 0.0 0.00 0.00 0.00 98 1020.6
20180920101004 67 112 0.0 0.0 0.00 0.00 0.00 98 1020.6
20180920100504 67 112 0.0 0.0 0.00 0.00 0.00 97 1020.5
20180920100005 67 112 0.0 0.0 0.00 0.00 0.00 97 1020.5
20180920095504 67 112 0.0 0.0 0.00 0.00 0.00 98 1020.4
20180920095004 67 112 0.0 0.0 0.00 0.00 0.00 98 1020.4
20180920094504 67 112 0.0 0.0 0.00 0.00 0.00 97 1020.4
20180920094004 67 112 0.0 0.0 0.00 0.00 0.00 98 1020.4
20180920093504 67 112 0.0 0.0 0.00 0.00 0.00 97 1020.4
20180920093005 67 112 0.0 0.0 0.00 0.00 0.00 98 1020.4
20180920092504 67 112 0.0 0.0 0.00 0.00 0.00 98 1020.3
20180920092004 68 112 0.0 0.0 0.00 0.00 0.00 98 1020.3
20180920091508 68 112 0.0 0.0 0.00 0.00 0.00 98 1020.2
20180920091004 68 112 0.0 0.0 0.00 0.00 0.00 98 1020.2
20180920090504 68 112 0.0 0.0 0.00 0.00 0.00 96 1020.2
20180920090005 68 112 0.0 0.0 0.00 0.00 0.00 96 1020.2
20180920085504 67 112 0.0 0.0 0.00 0.00 0.00 97 1020.2
20180920085004 67 112 0.0 0.0 0.00 0.00 0.00 97 1020.1
20180920084504 67 112 0.0 0.0 0.00 0.00 0.00 97 1020.1
20180920084004 67 112 0.0 0.0 0.00 0.00 0.00 97 1020.0
20180920083504 67 112 0.0 0.0 0.00 0.00 0.00 97 1020.0
20180920083005 68 112 0.0 0.0 0.00 0.00 0.00 97 1020.0
20180920082504 68 112 0.0 0.0 0.00 0.00 0.00 97 1019.9
20180920082004 68 112 0.0 0.0 0.00 0.00 0.00 96 1019.9
20180920081504 69 112 0.0 0.0 0.00 0.00 0.00 97 1019.8
20180920081005 68 112 0.0 0.0 0.00 0.00 0.00 97 1019.8
20180920080504 68 112 0.0 0.0 0.00 0.00 0.00 96 1019.7
20180920080005 68 112 0.0 0.0 0.00 0.00 0.00 96 1019.7
20180920075504 68 112 0.0 0.0 0.00 0.00 0.00 95 1019.6
20180920075004 68 112 0.0 0.0 0.00 0.00 0.00 96 1019.6
20180920074503 68 112 0.0 0.0 0.00 0.00 0.00 96 1019.5
20180920074005 68 112 0.0 0.0 0.00 0.00 0.00 95 1019.6
20180920073504 68 112 0.0 0.0 0.00 0.00 0.00 96 1019.5
20180920073004 68 112 0.0 0.0 0.00 0.00 0.00 96 1019.5
20180920072504 68 112 0.0 0.0 0.00 0.00 0.00 95 1019.5
20180920072004 68 112 0.0 0.0 0.00 0.00 0.00 96 1019.6
20180920071504 69 112 0.0 0.0 0.00 0.00 0.00 95 1019.6
20180920071005 69 112 0.0 0.0 0.00 0.00 0.00 96 1019.5
20180920070504 69 112 0.0 0.0 0.00 0.00 0.00 96 1019.6
20180920070005 70 112 0.0 0.0 0.00 0.00 0.00 95 1019.5
20180920065504 70 112 0.0 0.0 0.00 0.00 0.00 96 1019.5
20180920065004 70 112 0.0 0.0 0.00 0.00 0.00 96 1019.4
20180920064504 70 112 0.0 0.0 0.00 0.00 0.00 95 1019.4
20180920064004 70 112 0.0 0.0 0.00 0.00 0.00 94 1019.4
20180920063504 70 112 0.0 0.0 0.00 0.00 0.00 95 1019.4
20180920063005 70 112 0.0 0.0 0.00 0.00 0.00 94 1019.4
20180920062504 70 112 0.0 1.0 0.00 0.00 0.00 94 1019.4
20180920062004 70 112 0.0 0.0 0.00 0.00 0.00 93 1019.4
20180920061504 70 112 0.0 0.0 0.00 0.00 0.00 92 1019.3
20180920061004 70 112 0.0 0.0 0.00 0.00 0.00 90 1019.4
20180920060503 70 112 0.0 0.0 0.00 0.00 0.00 91 1019.4
20180920060004 71 112 0.0 0.0 0.00 0.00 0.00 90 1019.4
20180920055504 71 112 0.0 0.0 0.00 0.00 0.00 89 1019.5
20180920055005 72 112 0.0 0.0 0.00 0.00 0.00 90 1019.4
20180920054504 73 112 0.0 0.0 0.00 0.00 0.00 90 1019.4
20180920054004 73 112 0.0 0.0 0.00 0.00 0.00 90 1019.5
20180920053504 74 112 0.0 0.0 0.00 0.00 0.00 90 1019.5
20180920053004 74 112 0.0 1.0 0.00 0.00 0.00 90 1019.5
20180920052503 74 112 1.0 1.0 0.00 0.00 0.00 90 1019.5
20180920052005 74 135 2.0 2.0 0.00 0.00 0.00 90 1019.5
20180920051507 74 112 2.0 2.0 0.00 0.00 0.00 90 1019.5
20180920051005 74 112 2.0 2.0 0.00 0.00 0.00 90 1019.5
20180920050504 74 112 1.0 2.0 0.00 0.00 0.00 90 1019.5
20180920050005 74 112 2.0 3.0 0.00 0.00 0.00 90 1019.5
20180920045504 73 112 2.0 3.0 0.00 0.00 0.00 91 1019.5
20180920045004 73 135 1.0 2.0 0.00 0.00 0.00 91 1019.5
20180920044504 73 135 2.0 2.0 0.00 0.00 0.00 92 1019.6
20180920044005 72 135 2.0 2.0 0.00 0.00 0.00 94 1019.6
20180920043504 72 135 1.0 2.0 0.00 0.00 0.00 95 1019.7
20180920043005 71 135 1.0 2.0 0.00 0.00 0.00 96 1019.7
20180920042505 71 93 1.0 2.0 0.00 0.00 0.00 95 1019.7
20180920042006 71 90 0.0 1.0 0.00 0.00 0.00 95 1019.7
20180920041504 71 90 0.0 0.0 0.00 0.00 0.00 95 1019.7
20180920041005 71 90 0.0 0.0 0.00 0.00 0.00 95 1019.7
20180920040504 72 90 0.0 0.0 0.00 0.00 0.00 94 1019.7
20180920035504 72 90 0.0 0.0 0.00 0.00 0.00 95 1019.7
20180920035004 72 90 0.0 0.0 0.00 0.00 0.00 94 1019.7
20180920034504 72 90 0.0 0.0 0.00 0.00 0.00 94 1019.7
20180920034004 72 90 0.0 0.0 0.00 0.00 0.00 95 1019.8
20180920033504 72 90 0.0 0.0 0.00 0.00 0.00 93 1019.7
20180920033005 71 90 0.0 0.0 0.00 0.00 0.00 93 1019.7
20180920032504 72 90 0.0 0.0 0.00 0.00 0.00 92 1019.7
20180920032005 72 90 0.0 0.0 0.00 0.00 0.00 93 1019.7
20180920031504 72 90 0.0 0.0 0.00 0.00 0.00 93 1019.6
20180920031005 72 90 0.0 0.0 0.00 0.00 0.00 93 1019.5
20180920030504 72 90 0.0 0.0 0.00 0.00 0.00 92 1019.5
20180920030005 73 90 0.0 0.0 0.00 0.00 0.00 92 1019.5
20180920025504 73 90 0.0 0.0 0.00 0.00 0.00 92 1019.5
20180920025005 73 90 0.0 0.0 0.00 0.00 0.00 92 1019.5
20180920024504 73 90 0.0 0.0 0.00 0.00 0.00 92 1019.5
20180920024004 73 90 0.0 0.0 0.00 0.00 0.00 91 1019.3
20180920023504 73 90 0.0 0.0 0.00 0.00 0.00 92 1019.3
20180920023004 73 90 0.0 1.0 0.00 0.00 0.00 92 1019.4
20180920022504 73 71 0.0 1.0 0.00 0.00 0.00 91 1019.4
20180920022005 73 67 0.0 1.0 0.00 0.00 0.00 92 1019.3
20180920021504 73 67 1.0 1.0 0.00 0.00 0.00 91 1019.4
20180920021005 73 67 0.0 0.0 0.00 0.00 0.00 91 1019.5
20180920020504 74 67 0.0 0.0 0.00 0.00 0.00 92 1019.4
20180920020006 73 67 0.0 0.0 0.00 0.00 0.00 91 1019.4
20180920015504 73 67 0.0 0.0 0.00 0.00 0.00 92 1019.2
20180920015004 73 67 0.0 0.0 0.00 0.00 0.00 90 1019.2
20180920014504 73 337 0.0 0.0 0.00 0.00 0.00 91 1019.3
20180920014004 73 337 0.0 0.0 0.00 0.00 0.00 90 1019.3
20180920013504 74 294 0.0 0.0 0.00 0.00 0.00 91 1019.2
20180920013005 74 292 0.0 0.0 0.00 0.00 0.00 90 1019.1
20180920012504 74 292 0.0 0.0 0.00 0.00 0.00 89 1019.1
20180920012004 74 292 0.0 0.0 0.00 0.00 0.00 89 1019.1
20180920011504 74 292 0.0 0.0 0.00 0.00 0.00 89 1019.0
20180920011005 74 292 0.0 0.0 0.00 0.00 0.00 87 1019.0
20180920010503 74 292 0.0 0.0 0.00 0.00 0.00 85 1018.9
20180920010005 74 292 0.0 0.0 0.00 0.00 0.00 85 1019.0
20180920005504 75 292 0.0 0.0 0.00 0.00 0.00 85 1019.0
20180920005004 75 292 0.0 0.0 0.00 0.00 0.00 85 1018.9
20180920004504 75 292 0.0 0.0 0.00 0.00 0.00 85 1018.9
20180920004004 75 292 0.0 0.0 0.00 0.00 0.00 84 1018.9
20180920003504 76 292 0.0 0.0 0.00 0.00 0.00 82 1018.8
20180920003005 76 292 0.0 0.0 0.00 0.00 0.00 83 1018.9
20180920002505 77 292 0.0 0.0 0.00 0.00 0.00 82 1018.9
20180920002005 77 292 0.0 0.0 0.00 0.00 0.00 82 1018.9
20180920001504 77 292 0.0 0.0 0.00 0.00 0.00 81 1018.9
20180920001004 78 292 0.0 0.0 0.00 0.00 0.00 80 1018.8
20180920000504 78 292 0.0 0.0 0.00 0.00 0.00 79 1018.8
20180920000005 79 292 0.0 0.0 0.00 0.00 0.00 79 1018.8
20180919235503 79 292 0.0 0.0 0.00 0.00 0.00 78 1018.7
20180919235004 79 292 0.0 0.0 0.00 0.00 0.00 77 1018.6